sensor_id;sensor_type;location;lat;lon;timestamp;temperature;humidity
11748;DHT22;5931;48.832;9.072;2023-06-22T00:00:51;19.20;99.90
11748;DHT22;5931;48.832;9.072;2023-06-22T00:03:19;19.20;99.90
11748;DHT22;5931;48.832;9.072;2023-06-22T00:05:46;19.10;99.90
11748;DHT22;5931;48.832;9.072;2023-06-22T00:08:11;19.10;99.90
11748;DHT22;5931;48.832;9.072;2023-06-22T00:10:37;19.00;99.90
11748;DHT22;5931;48.832;9.072;2023-06-22T00:13:04;18.90;99.90
11748;DHT22;5931;48.832;9.072;2023-06-22T00:15:30;18.90;99.90
11748;DHT22;5931;48.832;9.072;2023-06-22T00:17:55;18.80;99.90
11748;DHT22;5931;48.832;9.072;2023-06-22T00:20:24;18.70;99.90
11748;DHT22;5931;48.832;9.072;2023-06-22T00:22:57;18.70;99.90
11748;DHT22;5931;48.832;9.072;2023-06-22T00:25:23;18.70;99.90
11748;DHT22;5931;48.832;9.072;2023-06-22T00:27:49;18.70;99.90
11748;DHT22;5931;48.832;9.072;2023-06-22T00:30:16;18.70;99.90
11748;DHT22;5931;48.832;9.072;2023-06-22T00:32:43;18.60;99.90
11748;DHT22;5931;48.832;9.072;2023-06-22T00:35:08;18.70;99.90
11748;DHT22;5931;48.832;9.072;2023-06-22T00:37:35;18.70;99.90
11748;DHT22;5931;48.832;9.072;2023-06-22T00:40:02;18.60;99.90
11748;DHT22;5931;48.832;9.072;2023-06-22T00:42:29;18.50;99.90
11748;DHT22;5931;48.832;9.072;2023-06-22T00:44:54;18.50;99.90
11748;DHT22;5931;48.832;9.072;2023-06-22T00:47:20;18.50;99.90
11748;DHT22;5931;48.832;9.072;2023-06-22T00:49:48;18.50;99.90
11748;DHT22;5931;48.832;9.072;2023-06-22T00:52:17;18.50;99.90
11748;DHT22;5931;48.832;9.072;2023-06-22T00:54:47;18.40;99.90
11748;DHT22;5931;48.832;9.072;2023-06-22T00:57:15;18.30;99.90
11748;DHT22;5931;48.832;9.072;2023-06-22T00:59:44;18.30;99.90
11748;DHT22;5931;48.832;9.072;2023-06-22T01:02:10;18.30;99.90
11748;DHT22;5931;48.832;9.072;2023-06-22T01:10:03;18.30;99.90
11748;DHT22;5931;48.832;9.072;2023-06-22T01:12:34;18.20;99.90
11748;DHT22;5931;48.832;9.072;2023-06-22T01:15:11;18.10;99.90
11748;DHT22;5931;48.832;9.072;2023-06-22T01:17:41;18.10;99.90
11748;DHT22;5931;48.832;9.072;2023-06-22T01:20:10;18.10;99.90
11748;DHT22;5931;48.832;9.072;2023-06-22T01:22:54;18.10;99.90
11748;DHT22;5931;48.832;9.072;2023-06-22T01:28:43;18.00;99.90
11748;DHT22;5931;48.832;9.072;2023-06-22T01:31:11;18.00;99.90
11748;DHT22;5931;48.832;9.072;2023-06-22T01:33:40;18.00;99.90
11748;DHT22;5931;48.832;9.072;2023-06-22T01:36:07;18.00;99.90
11748;DHT22;5931;48.832;9.072;2023-06-22T01:38:34;18.00;99.90
11748;DHT22;5931;48.832;9.072;2023-06-22T01:41:01;18.00;99.90
11748;DHT22;5931;48.832;9.072;2023-06-22T01:43:28;18.10;99.90
11748;DHT22;5931;48.832;9.072;2023-06-22T01:45:56;18.00;99.90
11748;DHT22;5931;48.832;9.072;2023-06-22T01:48:23;18.00;99.90
11748;DHT22;5931;48.832;9.072;2023-06-22T01:50:49;18.00;99.90
11748;DHT22;5931;48.832;9.072;2023-06-22T01:53:16;18.00;99.90
11748;DHT22;5931;48.832;9.072;2023-06-22T01:55:41;18.00;99.90
11748;DHT22;5931;48.832;9.072;2023-06-22T01:58:07;18.00;99.90
11748;DHT22;5931;48.832;9.072;2023-06-22T02:00:37;18.00;99.90
11748;DHT22;5931;48.832;9.072;2023-06-22T02:03:17;17.90;99.90
11748;DHT22;5931;48.832;9.072;2023-06-22T02:05:49;17.90;99.90
11748;DHT22;5931;48.832;9.072;2023-06-22T02:08:20;17.90;99.90
11748;DHT22;5931;48.832;9.072;2023-06-22T02:10:47;17.90;99.90
11748;DHT22;5931;48.832;9.072;2023-06-22T02:13:14;17.90;99.90
11748;DHT22;5931;48.832;9.072;2023-06-22T02:15:40;17.90;99.90
11748;DHT22;5931;48.832;9.072;2023-06-22T02:18:06;17.80;99.90
11748;DHT22;5931;48.832;9.072;2023-06-22T02:20:32;17.60;99.90
11748;DHT22;5931;48.832;9.072;2023-06-22T02:22:58;17.50;99.90
11748;DHT22;5931;48.832;9.072;2023-06-22T02:25:23;17.50;99.90
11748;DHT22;5931;48.832;9.072;2023-06-22T02:27:49;17.50;99.90
11748;DHT22;5931;48.832;9.072;2023-06-22T02:30:16;17.50;99.90
11748;DHT22;5931;48.832;9.072;2023-06-22T02:32:42;17.60;99.90
11748;DHT22;5931;48.832;9.072;2023-06-22T02:35:09;17.60;99.90
11748;DHT22;5931;48.832;9.072;2023-06-22T02:37:38;17.50;99.90
11748;DHT22;5931;48.832;9.072;2023-06-22T02:40:07;17.60;99.90
11748;DHT22;5931;48.832;9.072;2023-06-22T02:42:35;17.50;99.90
11748;DHT22;5931;48.832;9.072;2023-06-22T02:45:00;17.40;99.90
11748;DHT22;5931;48.832;9.072;2023-06-22T02:47:26;17.40;99.90
11748;DHT22;5931;48.832;9.072;2023-06-22T02:49:52;17.30;99.90
11748;DHT22;5931;48.832;9.072;2023-06-22T02:52:18;17.30;99.90
11748;DHT22;5931;48.832;9.072;2023-06-22T02:54:44;17.30;99.90
11748;DHT22;5931;48.832;9.072;2023-06-22T02:57:12;17.30;99.90
11748;DHT22;5931;48.832;9.072;2023-06-22T02:59:40;17.30;99.90
11748;DHT22;5931;48.832;9.072;2023-06-22T03:02:09;17.20;99.90
11748;DHT22;5931;48.832;9.072;2023-06-22T03:04:35;17.10;99.90
11748;DHT22;5931;48.832;9.072;2023-06-22T03:07:01;17.10;99.90
11748;DHT22;5931;48.832;9.072;2023-06-22T03:09:28;17.10;99.90
11748;DHT22;5931;48.832;9.072;2023-06-22T03:11:55;17.10;99.90
11748;DHT22;5931;48.832;9.072;2023-06-22T03:14:23;17.00;99.90
11748;DHT22;5931;48.832;9.072;2023-06-22T03:16:51;16.90;99.90
11748;DHT22;5931;48.832;9.072;2023-06-22T03:19:18;16.90;99.90
11748;DHT22;5931;48.832;9.072;2023-06-22T03:21:45;16.90;99.90
11748;DHT22;5931;48.832;9.072;2023-06-22T03:24:10;16.90;99.90
11748;DHT22;5931;48.832;9.072;2023-06-22T03:26:37;17.00;99.90
11748;DHT22;5931;48.832;9.072;2023-06-22T03:29:03;16.90;99.90
11748;DHT22;5931;48.832;9.072;2023-06-22T03:31:29;16.90;99.90
11748;DHT22;5931;48.832;9.072;2023-06-22T03:33:55;17.00;99.90
11748;DHT22;5931;48.832;9.072;2023-06-22T03:36:22;17.00;99.90
11748;DHT22;5931;48.832;9.072;2023-06-22T03:38:49;17.00;99.90
11748;DHT22;5931;48.832;9.072;2023-06-22T03:41:15;16.90;99.90
11748;DHT22;5931;48.832;9.072;2023-06-22T03:43:41;16.90;99.90
11748;DHT22;5931;48.832;9.072;2023-06-22T03:46:07;16.90;99.90
11748;DHT22;5931;48.832;9.072;2023-06-22T03:48:33;16.90;99.90
11748;DHT22;5931;48.832;9.072;2023-06-22T03:50:59;16.90;99.90
11748;DHT22;5931;48.832;9.072;2023-06-22T03:53:25;17.00;99.90
11748;DHT22;5931;48.832;9.072;2023-06-22T03:55:52;17.10;99.90
11748;DHT22;5931;48.832;9.072;2023-06-22T03:58:19;17.10;99.90
11748;DHT22;5931;48.832;9.072;2023-06-22T04:00:49;17.10;99.90
11748;DHT22;5931;48.832;9.072;2023-06-22T04:03:15;17.20;99.90
11748;DHT22;5931;48.832;9.072;2023-06-22T04:05:41;17.30;99.90
11748;DHT22;5931;48.832;9.072;2023-06-22T04:08:07;17.30;99.90
11748;DHT22;5931;48.832;9.072;2023-06-22T04:10:33;17.40;99.90
11748;DHT22;5931;48.832;9.072;2023-06-22T04:13:00;17.50;99.90
11748;DHT22;5931;48.832;9.072;2023-06-22T04:15:25;17.60;99.90
11748;DHT22;5931;48.832;9.072;2023-06-22T04:17:51;17.70;99.90
11748;DHT22;5931;48.832;9.072;2023-06-22T04:20:17;17.70;99.90
11748;DHT22;5931;48.832;9.072;2023-06-22T04:22:42;17.80;99.90
11748;DHT22;5931;48.832;9.072;2023-06-22T04:25:08;17.80;99.90
11748;DHT22;5931;48.832;9.072;2023-06-22T04:27:34;17.90;99.90
11748;DHT22;5931;48.832;9.072;2023-06-22T04:30:06;17.90;99.90
11748;DHT22;5931;48.832;9.072;2023-06-22T04:32:32;18.00;99.90
11748;DHT22;5931;48.832;9.072;2023-06-22T04:34:58;18.10;99.90
11748;DHT22;5931;48.832;9.072;2023-06-22T04:37:26;18.30;99.90
11748;DHT22;5931;48.832;9.072;2023-06-22T04:39:51;18.40;99.90
11748;DHT22;5931;48.832;9.072;2023-06-22T04:42:17;18.60;99.90
11748;DHT22;5931;48.832;9.072;2023-06-22T04:44:43;18.70;99.90
11748;DHT22;5931;48.832;9.072;2023-06-22T04:47:09;18.80;99.90
11748;DHT22;5931;48.832;9.072;2023-06-22T04:49:37;18.90;99.90
11748;DHT22;5931;48.832;9.072;2023-06-22T04:52:13;19.00;99.90
11748;DHT22;5931;48.832;9.072;2023-06-22T04:54:39;19.10;99.90
11748;DHT22;5931;48.832;9.072;2023-06-22T04:57:12;19.20;99.90
11748;DHT22;5931;48.832;9.072;2023-06-22T04:59:38;19.40;99.90
11748;DHT22;5931;48.832;9.072;2023-06-22T05:02:07;19.40;99.90
11748;DHT22;5931;48.832;9.072;2023-06-22T05:04:34;19.60;99.90
11748;DHT22;5931;48.832;9.072;2023-06-22T05:07:01;19.80;99.90
11748;DHT22;5931;48.832;9.072;2023-06-22T05:09:28;20.00;99.90
11748;DHT22;5931;48.832;9.072;2023-06-22T05:11:53;20.20;99.90
11748;DHT22;5931;48.832;9.072;2023-06-22T05:14:19;20.30;99.90
11748;DHT22;5931;48.832;9.072;2023-06-22T05:16:46;20.50;99.90
11748;DHT22;5931;48.832;9.072;2023-06-22T05:19:11;20.70;99.90
11748;DHT22;5931;48.832;9.072;2023-06-22T05:21:38;20.90;99.90
11748;DHT22;5931;48.832;9.072;2023-06-22T05:24:04;21.00;99.90
11748;DHT22;5931;48.832;9.072;2023-06-22T05:26:31;21.20;99.90
11748;DHT22;5931;48.832;9.072;2023-06-22T05:28:59;21.30;99.90
11748;DHT22;5931;48.832;9.072;2023-06-22T05:31:26;21.40;99.90
11748;DHT22;5931;48.832;9.072;2023-06-22T05:33:53;21.50;99.90
11748;DHT22;5931;48.832;9.072;2023-06-22T05:36:19;21.60;99.90
11748;DHT22;5931;48.832;9.072;2023-06-22T05:38:47;21.70;99.90
11748;DHT22;5931;48.832;9.072;2023-06-22T05:41:13;21.80;99.90
11748;DHT22;5931;48.832;9.072;2023-06-22T05:43:39;21.80;99.90
11748;DHT22;5931;48.832;9.072;2023-06-22T05:46:05;21.90;99.90
11748;DHT22;5931;48.832;9.072;2023-06-22T05:48:31;21.90;99.90
11748;DHT22;5931;48.832;9.072;2023-06-22T05:50:56;22.00;99.90
11748;DHT22;5931;48.832;9.072;2023-06-22T05:53:22;22.00;99.90
11748;DHT22;5931;48.832;9.072;2023-06-22T05:55:48;21.90;99.90
11748;DHT22;5931;48.832;9.072;2023-06-22T05:58:14;21.80;99.90
11748;DHT22;5931;48.832;9.072;2023-06-22T06:00:40;21.80;99.90
11748;DHT22;5931;48.832;9.072;2023-06-22T06:03:09;21.90;99.90
11748;DHT22;5931;48.832;9.072;2023-06-22T06:05:36;22.00;99.90
11748;DHT22;5931;48.832;9.072;2023-06-22T06:08:04;22.10;99.90
11748;DHT22;5931;48.832;9.072;2023-06-22T06:10:31;22.30;99.90
11748;DHT22;5931;48.832;9.072;2023-06-22T06:12:57;22.40;99.90
11748;DHT22;5931;48.832;9.072;2023-06-22T06:15:23;22.40;99.90
11748;DHT22;5931;48.832;9.072;2023-06-22T06:17:50;22.60;99.90
11748;DHT22;5931;48.832;9.072;2023-06-22T06:20:21;22.70;99.90
11748;DHT22;5931;48.832;9.072;2023-06-22T06:22:48;22.80;99.90
11748;DHT22;5931;48.832;9.072;2023-06-22T06:25:13;22.90;99.90
11748;DHT22;5931;48.832;9.072;2023-06-22T06:27:46;23.00;99.90
11748;DHT22;5931;48.832;9.072;2023-06-22T06:30:12;23.00;99.90
11748;DHT22;5931;48.832;9.072;2023-06-22T06:32:39;23.10;99.90
11748;DHT22;5931;48.832;9.072;2023-06-22T06:35:09;23.20;99.90
11748;DHT22;5931;48.832;9.072;2023-06-22T06:37:40;23.40;99.90
11748;DHT22;5931;48.832;9.072;2023-06-22T06:40:07;23.40;99.90
11748;DHT22;5931;48.832;9.072;2023-06-22T06:42:49;23.40;99.90
11748;DHT22;5931;48.832;9.072;2023-06-22T06:45:17;23.50;99.90
11748;DHT22;5931;48.832;9.072;2023-06-22T06:47:43;23.50;99.90
11748;DHT22;5931;48.832;9.072;2023-06-22T06:50:09;23.60;99.90
11748;DHT22;5931;48.832;9.072;2023-06-22T06:52:35;23.80;99.90
11748;DHT22;5931;48.832;9.072;2023-06-22T06:55:01;24.00;99.90
11748;DHT22;5931;48.832;9.072;2023-06-22T06:57:29;24.10;99.90
11748;DHT22;5931;48.832;9.072;2023-06-22T06:59:58;24.00;99.90
11748;DHT22;5931;48.832;9.072;2023-06-22T07:02:26;24.10;99.90
11748;DHT22;5931;48.832;9.072;2023-06-22T07:04:53;24.10;99.90
11748;DHT22;5931;48.832;9.072;2023-06-22T07:07:21;24.20;99.90
11748;DHT22;5931;48.832;9.072;2023-06-22T07:09:47;24.30;99.90
11748;DHT22;5931;48.832;9.072;2023-06-22T07:12:12;24.30;99.90
11748;DHT22;5931;48.832;9.072;2023-06-22T07:14:38;24.40;99.90
11748;DHT22;5931;48.832;9.072;2023-06-22T07:17:04;24.50;99.90
11748;DHT22;5931;48.832;9.072;2023-06-22T07:19:30;24.60;99.90
11748;DHT22;5931;48.832;9.072;2023-06-22T07:21:57;24.70;99.90
11748;DHT22;5931;48.832;9.072;2023-06-22T07:24:22;24.70;99.90
11748;DHT22;5931;48.832;9.072;2023-06-22T07:26:49;24.80;99.90
11748;DHT22;5931;48.832;9.072;2023-06-22T07:29:19;24.90;99.90
11748;DHT22;5931;48.832;9.072;2023-06-22T07:31:48;25.00;99.90
11748;DHT22;5931;48.832;9.072;2023-06-22T07:34:15;25.00;99.90
11748;DHT22;5931;48.832;9.072;2023-06-22T07:36:40;25.20;99.90
11748;DHT22;5931;48.832;9.072;2023-06-22T07:39:06;25.30;99.90
11748;DHT22;5931;48.832;9.072;2023-06-22T07:41:32;25.40;99.90
11748;DHT22;5931;48.832;9.072;2023-06-22T07:43:58;25.40;99.90
11748;DHT22;5931;48.832;9.072;2023-06-22T07:46:24;25.50;99.90
11748;DHT22;5931;48.832;9.072;2023-06-22T07:48:49;25.60;99.90
11748;DHT22;5931;48.832;9.072;2023-06-22T07:51:15;25.60;99.90
11748;DHT22;5931;48.832;9.072;2023-06-22T07:53:41;25.70;99.90
11748;DHT22;5931;48.832;9.072;2023-06-22T07:56:10;25.60;99.90
11748;DHT22;5931;48.832;9.072;2023-06-22T07:58:36;25.60;99.90
11748;DHT22;5931;48.832;9.072;2023-06-22T08:01:02;25.60;99.90
11748;DHT22;5931;48.832;9.072;2023-06-22T08:03:28;25.70;99.90
11748;DHT22;5931;48.832;9.072;2023-06-22T08:05:54;25.70;99.90
11748;DHT22;5931;48.832;9.072;2023-06-22T08:08:20;25.80;99.90
11748;DHT22;5931;48.832;9.072;2023-06-22T08:10:45;26.00;99.90
11748;DHT22;5931;48.832;9.072;2023-06-22T08:13:11;26.00;99.90
11748;DHT22;5931;48.832;9.072;2023-06-22T08:15:37;26.30;99.90
11748;DHT22;5931;48.832;9.072;2023-06-22T08:18:03;26.70;99.90
11748;DHT22;5931;48.832;9.072;2023-06-22T08:20:28;27.00;99.90
11748;DHT22;5931;48.832;9.072;2023-06-22T08:22:55;27.20;99.90
11748;DHT22;5931;48.832;9.072;2023-06-22T08:25:22;27.30;99.90
11748;DHT22;5931;48.832;9.072;2023-06-22T08:27:48;27.20;99.90
11748;DHT22;5931;48.832;9.072;2023-06-22T08:30:14;27.40;99.90
11748;DHT22;5931;48.832;9.072;2023-06-22T08:32:40;27.70;99.90
11748;DHT22;5931;48.832;9.072;2023-06-22T08:35:06;27.80;99.90
11748;DHT22;5931;48.832;9.072;2023-06-22T08:37:35;27.90;99.90
11748;DHT22;5931;48.832;9.072;2023-06-22T08:40:04;28.00;99.90
11748;DHT22;5931;48.832;9.072;2023-06-22T08:42:30;28.10;99.90
11748;DHT22;5931;48.832;9.072;2023-06-22T08:44:57;28.10;99.90
11748;DHT22;5931;48.832;9.072;2023-06-22T08:47:23;28.10;99.90
11748;DHT22;5931;48.832;9.072;2023-06-22T08:49:49;28.10;99.90
11748;DHT22;5931;48.832;9.072;2023-06-22T08:52:14;28.20;99.90
11748;DHT22;5931;48.832;9.072;2023-06-22T08:54:40;28.40;99.90
11748;DHT22;5931;48.832;9.072;2023-06-22T08:57:06;28.70;99.90
11748;DHT22;5931;48.832;9.072;2023-06-22T08:59:32;28.90;99.90
11748;DHT22;5931;48.832;9.072;2023-06-22T09:01:57;29.30;99.90
11748;DHT22;5931;48.832;9.072;2023-06-22T09:04:23;29.70;99.90
11748;DHT22;5931;48.832;9.072;2023-06-22T09:06:49;29.90;99.90
11748;DHT22;5931;48.832;9.072;2023-06-22T09:09:18;30.10;99.90
11748;DHT22;5931;48.832;9.072;2023-06-22T09:11:44;30.10;99.90
11748;DHT22;5931;48.832;9.072;2023-06-22T09:14:10;29.90;99.90
11748;DHT22;5931;48.832;9.072;2023-06-22T09:16:36;30.10;99.90
11748;DHT22;5931;48.832;9.072;2023-06-22T09:19:02;30.00;99.90
11748;DHT22;5931;48.832;9.072;2023-06-22T09:21:28;30.10;99.90
11748;DHT22;5931;48.832;9.072;2023-06-22T09:23:54;30.40;99.90
11748;DHT22;5931;48.832;9.072;2023-06-22T09:26:20;30.70;99.90
11748;DHT22;5931;48.832;9.072;2023-06-22T09:28:46;30.70;99.90
11748;DHT22;5931;48.832;9.072;2023-06-22T09:31:12;30.20;99.90
11748;DHT22;5931;48.832;9.072;2023-06-22T09:33:39;30.10;99.90
11748;DHT22;5931;48.832;9.072;2023-06-22T09:36:06;30.40;99.90
11748;DHT22;5931;48.832;9.072;2023-06-22T09:38:35;30.50;99.90
11748;DHT22;5931;48.832;9.072;2023-06-22T09:41:01;30.70;99.90
11748;DHT22;5931;48.832;9.072;2023-06-22T09:43:27;30.60;99.90
11748;DHT22;5931;48.832;9.072;2023-06-22T09:45:53;30.30;99.90
11748;DHT22;5931;48.832;9.072;2023-06-22T09:48:19;30.30;99.90
11748;DHT22;5931;48.832;9.072;2023-06-22T09:50:44;30.20;99.90
11748;DHT22;5931;48.832;9.072;2023-06-22T09:53:10;30.10;99.90
11748;DHT22;5931;48.832;9.072;2023-06-22T09:55:36;30.00;99.90
11748;DHT22;5931;48.832;9.072;2023-06-22T09:58:01;30.20;99.90
11748;DHT22;5931;48.832;9.072;2023-06-22T10:00:27;30.50;99.90
11748;DHT22;5931;48.832;9.072;2023-06-22T10:02:52;30.90;99.90
11748;DHT22;5931;48.832;9.072;2023-06-22T10:05:18;31.10;99.90
11748;DHT22;5931;48.832;9.072;2023-06-22T10:07:44;31.10;99.90
11748;DHT22;5931;48.832;9.072;2023-06-22T10:10:11;31.20;99.90
11748;DHT22;5931;48.832;9.072;2023-06-22T10:12:43;31.40;99.90
11748;DHT22;5931;48.832;9.072;2023-06-22T10:15:10;31.40;99.90
11748;DHT22;5931;48.832;9.072;2023-06-22T10:17:36;31.80;99.90
11748;DHT22;5931;48.832;9.072;2023-06-22T10:20:02;32.20;99.90
11748;DHT22;5931;48.832;9.072;2023-06-22T10:22:38;32.30;99.90
11748;DHT22;5931;48.832;9.072;2023-06-22T10:25:04;32.60;99.90
11748;DHT22;5931;48.832;9.072;2023-06-22T10:27:29;32.60;99.90
11748;DHT22;5931;48.832;9.072;2023-06-22T10:29:56;33.10;99.90
11748;DHT22;5931;48.832;9.072;2023-06-22T10:32:22;33.50;99.90
11748;DHT22;5931;48.832;9.072;2023-06-22T10:34:48;33.40;99.90
11748;DHT22;5931;48.832;9.072;2023-06-22T10:37:13;33.60;99.90
11748;DHT22;5931;48.832;9.072;2023-06-22T10:39:39;33.70;99.90
11748;DHT22;5931;48.832;9.072;2023-06-22T10:42:05;33.80;99.90
11748;DHT22;5931;48.832;9.072;2023-06-22T10:44:31;33.80;99.90
11748;DHT22;5931;48.832;9.072;2023-06-22T10:46:56;33.60;99.90
11748;DHT22;5931;48.832;9.072;2023-06-22T10:49:22;33.40;99.90
11748;DHT22;5931;48.832;9.072;2023-06-22T10:51:47;33.30;99.90
11748;DHT22;5931;48.832;9.072;2023-06-22T10:54:13;33.50;99.90
11748;DHT22;5931;48.832;9.072;2023-06-22T10:56:40;33.60;99.90
11748;DHT22;5931;48.832;9.072;2023-06-22T10:59:05;34.10;99.90
11748;DHT22;5931;48.832;9.072;2023-06-22T11:01:31;34.70;99.90
11748;DHT22;5931;48.832;9.072;2023-06-22T11:03:58;34.90;99.90
11748;DHT22;5931;48.832;9.072;2023-06-22T11:06:24;35.00;99.90
11748;DHT22;5931;48.832;9.072;2023-06-22T11:08:50;35.20;99.90
11748;DHT22;5931;48.832;9.072;2023-06-22T11:11:15;35.10;99.90
11748;DHT22;5931;48.832;9.072;2023-06-22T11:13:43;34.90;99.90
11748;DHT22;5931;48.832;9.072;2023-06-22T11:16:10;34.60;99.90
11748;DHT22;5931;48.832;9.072;2023-06-22T11:18:36;34.60;99.90
11748;DHT22;5931;48.832;9.072;2023-06-22T11:21:01;34.90;99.90
11748;DHT22;5931;48.832;9.072;2023-06-22T11:23:27;34.70;99.90
11748;DHT22;5931;48.832;9.072;2023-06-22T11:25:56;34.70;99.90
11748;DHT22;5931;48.832;9.072;2023-06-22T11:28:22;34.90;99.90
11748;DHT22;5931;48.832;9.072;2023-06-22T11:30:48;34.60;99.90
11748;DHT22;5931;48.832;9.072;2023-06-22T11:33:13;34.10;99.90
11748;DHT22;5931;48.832;9.072;2023-06-22T11:35:39;33.80;99.90
11748;DHT22;5931;48.832;9.072;2023-06-22T11:38:05;33.40;99.90
11748;DHT22;5931;48.832;9.072;2023-06-22T11:40:31;33.30;99.90
11748;DHT22;5931;48.832;9.072;2023-06-22T11:42:56;33.60;99.90
11748;DHT22;5931;48.832;9.072;2023-06-22T11:45:22;33.70;99.90
11748;DHT22;5931;48.832;9.072;2023-06-22T11:47:48;33.70;99.90
11748;DHT22;5931;48.832;9.072;2023-06-22T11:50:14;33.40;99.90
11748;DHT22;5931;48.832;9.072;2023-06-22T11:52:40;33.30;99.90
11748;DHT22;5931;48.832;9.072;2023-06-22T11:55:06;33.20;99.90
11748;DHT22;5931;48.832;9.072;2023-06-22T11:57:36;33.10;99.90
11748;DHT22;5931;48.832;9.072;2023-06-22T12:00:05;32.90;99.90
11748;DHT22;5931;48.832;9.072;2023-06-22T12:02:32;32.60;99.90
11748;DHT22;5931;48.832;9.072;2023-06-22T12:04:58;32.40;99.90
11748;DHT22;5931;48.832;9.072;2023-06-22T12:07:23;32.10;99.90
11748;DHT22;5931;48.832;9.072;2023-06-22T12:09:49;32.00;99.90
11748;DHT22;5931;48.832;9.072;2023-06-22T12:12:15;32.10;99.90
11748;DHT22;5931;48.832;9.072;2023-06-22T12:14:40;32.20;99.90
11748;DHT22;5931;48.832;9.072;2023-06-22T12:17:06;32.40;99.90
11748;DHT22;5931;48.832;9.072;2023-06-22T12:19:32;32.70;99.90
11748;DHT22;5931;48.832;9.072;2023-06-22T12:21:57;32.60;99.90
11748;DHT22;5931;48.832;9.072;2023-06-22T12:24:23;32.70;99.90
11748;DHT22;5931;48.832;9.072;2023-06-22T12:26:49;32.90;99.90
11748;DHT22;5931;48.832;9.072;2023-06-22T12:29:15;32.80;99.90
11748;DHT22;5931;48.832;9.072;2023-06-22T12:31:40;32.80;99.90
11748;DHT22;5931;48.832;9.072;2023-06-22T12:34:07;32.80;99.90
11748;DHT22;5931;48.832;9.072;2023-06-22T12:36:32;32.80;99.90
11748;DHT22;5931;48.832;9.072;2023-06-22T12:38:58;32.70;99.90
11748;DHT22;5931;48.832;9.072;2023-06-22T12:41:23;32.80;99.90
11748;DHT22;5931;48.832;9.072;2023-06-22T12:43:49;33.00;99.90
11748;DHT22;5931;48.832;9.072;2023-06-22T12:46:15;33.30;99.90
11748;DHT22;5931;48.832;9.072;2023-06-22T12:48:40;33.40;99.90
11748;DHT22;5931;48.832;9.072;2023-06-22T12:51:09;33.40;99.90
11748;DHT22;5931;48.832;9.072;2023-06-22T12:53:35;33.60;99.90
11748;DHT22;5931;48.832;9.072;2023-06-22T12:56:01;33.70;99.90
11748;DHT22;5931;48.832;9.072;2023-06-22T12:58:26;33.90;99.90
11748;DHT22;5931;48.832;9.072;2023-06-22T13:00:52;33.90;99.90
11748;DHT22;5931;48.832;9.072;2023-06-22T13:03:18;33.60;99.90
11748;DHT22;5931;48.832;9.072;2023-06-22T13:05:44;33.40;99.90
11748;DHT22;5931;48.832;9.072;2023-06-22T13:08:09;33.00;99.90
11748;DHT22;5931;48.832;9.072;2023-06-22T13:10:36;32.70;99.90
11748;DHT22;5931;48.832;9.072;2023-06-22T13:13:02;32.40;99.90
11748;DHT22;5931;48.832;9.072;2023-06-22T13:15:30;32.20;99.90
11748;DHT22;5931;48.832;9.072;2023-06-22T13:17:56;32.10;99.90
11748;DHT22;5931;48.832;9.072;2023-06-22T13:20:22;32.00;99.90
11748;DHT22;5931;48.832;9.072;2023-06-22T13:22:47;32.00;99.90
11748;DHT22;5931;48.832;9.072;2023-06-22T13:25:13;32.00;99.90
11748;DHT22;5931;48.832;9.072;2023-06-22T13:27:41;32.20;99.90
11748;DHT22;5931;48.832;9.072;2023-06-22T13:30:10;32.30;99.90
11748;DHT22;5931;48.832;9.072;2023-06-22T13:32:36;32.40;99.90
11748;DHT22;5931;48.832;9.072;2023-06-22T13:35:02;32.60;99.90
11748;DHT22;5931;48.832;9.072;2023-06-22T13:37:27;32.80;99.90
11748;DHT22;5931;48.832;9.072;2023-06-22T13:39:53;32.80;99.90
11748;DHT22;5931;48.832;9.072;2023-06-22T13:42:21;32.80;99.90
11748;DHT22;5931;48.832;9.072;2023-06-22T13:44:47;33.10;99.90
11748;DHT22;5931;48.832;9.072;2023-06-22T13:47:12;33.40;99.90
11748;DHT22;5931;48.832;9.072;2023-06-22T13:49:38;33.60;99.90
11748;DHT22;5931;48.832;9.072;2023-06-22T13:52:04;33.70;99.90
11748;DHT22;5931;48.832;9.072;2023-06-22T13:54:32;33.70;99.90
11748;DHT22;5931;48.832;9.072;2023-06-22T13:56:57;33.60;99.90
11748;DHT22;5931;48.832;9.072;2023-06-22T13:59:23;33.50;99.90
11748;DHT22;5931;48.832;9.072;2023-06-22T14:01:49;33.30;99.90
11748;DHT22;5931;48.832;9.072;2023-06-22T14:04:14;33.10;99.90
11748;DHT22;5931;48.832;9.072;2023-06-22T14:06:40;32.70;99.90
11748;DHT22;5931;48.832;9.072;2023-06-22T14:09:06;32.80;99.90
11748;DHT22;5931;48.832;9.072;2023-06-22T14:11:32;32.60;99.90
11748;DHT22;5931;48.832;9.072;2023-06-22T14:13:58;32.60;99.90
11748;DHT22;5931;48.832;9.072;2023-06-22T14:16:23;32.70;99.90
11748;DHT22;5931;48.832;9.072;2023-06-22T14:18:49;32.70;99.90
11748;DHT22;5931;48.832;9.072;2023-06-22T14:21:14;33.10;99.90
11748;DHT22;5931;48.832;9.072;2023-06-22T14:23:40;33.60;99.90
11748;DHT22;5931;48.832;9.072;2023-06-22T14:26:06;34.30;99.90
11748;DHT22;5931;48.832;9.072;2023-06-22T14:28:31;34.70;99.90
11748;DHT22;5931;48.832;9.072;2023-06-22T14:30:57;34.90;99.90
11748;DHT22;5931;48.832;9.072;2023-06-22T14:33:23;34.90;99.90
11748;DHT22;5931;48.832;9.072;2023-06-22T14:35:49;35.20;99.90
11748;DHT22;5931;48.832;9.072;2023-06-22T14:38:15;35.70;99.90
11748;DHT22;5931;48.832;9.072;2023-06-22T14:40:40;36.30;99.90
11748;DHT22;5931;48.832;9.072;2023-06-22T14:43:06;36.30;99.30
11748;DHT22;5931;48.832;9.072;2023-06-22T14:45:31;35.80;96.70
11748;DHT22;5931;48.832;9.072;2023-06-22T14:47:57;35.70;96.60
11748;DHT22;5931;48.832;9.072;2023-06-22T14:50:23;35.90;95.10
11748;DHT22;5931;48.832;9.072;2023-06-22T14:52:48;36.30;94.10
11748;DHT22;5931;48.832;9.072;2023-06-22T14:55:14;36.20;92.50
11748;DHT22;5931;48.832;9.072;2023-06-22T14:57:40;35.90;91.30
11748;DHT22;5931;48.832;9.072;2023-06-22T15:00:06;35.80;90.00
11748;DHT22;5931;48.832;9.072;2023-06-22T15:02:32;35.30;88.30
11748;DHT22;5931;48.832;9.072;2023-06-22T15:04:58;34.80;90.30
11748;DHT22;5931;48.832;9.072;2023-06-22T15:07:24;34.30;89.10
11748;DHT22;5931;48.832;9.072;2023-06-22T15:09:49;34.00;91.10
11748;DHT22;5931;48.832;9.072;2023-06-22T15:12:15;33.90;92.20
11748;DHT22;5931;48.832;9.072;2023-06-22T15:14:41;33.60;90.30
11748;DHT22;5931;48.832;9.072;2023-06-22T15:17:08;33.70;90.90
11748;DHT22;5931;48.832;9.072;2023-06-22T15:19:39;33.60;88.30
11748;DHT22;5931;48.832;9.072;2023-06-22T15:22:06;33.50;91.00
11748;DHT22;5931;48.832;9.072;2023-06-22T15:24:32;33.30;90.40
11748;DHT22;5931;48.832;9.072;2023-06-22T15:26:58;33.00;87.60
11748;DHT22;5931;48.832;9.072;2023-06-22T15:29:24;32.90;89.90
11748;DHT22;5931;48.832;9.072;2023-06-22T15:31:51;32.90;90.70
11748;DHT22;5931;48.832;9.072;2023-06-22T15:34:17;33.00;90.90
11748;DHT22;5931;48.832;9.072;2023-06-22T15:36:42;32.80;91.00
11748;DHT22;5931;48.832;9.072;2023-06-22T15:39:08;32.70;90.80
11748;DHT22;5931;48.832;9.072;2023-06-22T15:41:33;32.60;88.40
11748;DHT22;5931;48.832;9.072;2023-06-22T15:43:59;32.40;91.30
11748;DHT22;5931;48.832;9.072;2023-06-22T15:46:25;32.40;91.40
11748;DHT22;5931;48.832;9.072;2023-06-22T15:48:50;32.30;91.30